sensor_id;sensor_type;location;lat;lon;timestamp;P1;durP1;ratioP1;P2;durP2;ratioP2
479;SDS011;226;48.606;9.096;2022-09-29T00:00:54;2.67;;;2.10;;
479;SDS011;226;48.606;9.096;2022-09-29T00:03:23;2.87;;;2.67;;
479;SDS011;226;48.606;9.096;2022-09-29T00:05:53;3.57;;;3.23;;
479;SDS011;226;48.606;9.096;2022-09-29T00:08:22;2.20;;;1.83;;
479;SDS011;226;48.606;9.096;2022-09-29T00:10:50;1.97;;;1.87;;
479;SDS011;226;48.606;9.096;2022-09-29T00:13:19;2.03;;;1.93;;
479;SDS011;226;48.606;9.096;2022-09-29T00:15:53;4.43;;;3.80;;
479;SDS011;226;48.606;9.096;2022-09-29T00:18:22;2.63;;;2.10;;
479;SDS011;226;48.606;9.096;2022-09-29T00:21:01;1.83;;;1.70;;
479;SDS011;226;48.606;9.096;2022-09-29T00:23:30;3.13;;;2.03;;
479;SDS011;226;48.606;9.096;2022-09-29T00:26:03;4.30;;;2.83;;
479;SDS011;226;48.606;9.096;2022-09-29T00:28:32;2.60;;;2.40;;
479;SDS011;226;48.606;9.096;2022-09-29T00:31:01;3.07;;;2.73;;
479;SDS011;226;48.606;9.096;2022-09-29T00:33:29;3.33;;;2.40;;
479;SDS011;226;48.606;9.096;2022-09-29T00:35:58;1.73;;;1.63;;
479;SDS011;226;48.606;9.096;2022-09-29T00:38:28;4.77;;;2.20;;
479;SDS011;226;48.606;9.096;2022-09-29T00:40:57;10.80;;;2.63;;
479;SDS011;226;48.606;9.096;2022-09-29T00:46:10;2.43;;;1.90;;
479;SDS011;226;48.606;9.096;2022-09-29T00:48:39;5.60;;;2.50;;
479;SDS011;226;48.606;9.096;2022-09-29T00:51:08;2.80;;;2.60;;
479;SDS011;226;48.606;9.096;2022-09-29T00:53:37;4.73;;;2.67;;
479;SDS011;226;48.606;9.096;2022-09-29T00:56:06;1.83;;;1.73;;
479;SDS011;226;48.606;9.096;2022-09-29T00:58:37;1.80;;;1.70;;
479;SDS011;226;48.606;9.096;2022-09-29T01:01:07;1.50;;;1.40;;
479;SDS011;226;48.606;9.096;2022-09-29T01:03:37;2.30;;;2.20;;
479;SDS011;226;48.606;9.096;2022-09-29T01:06:08;1.93;;;1.53;;
479;SDS011;226;48.606;9.096;2022-09-29T01:08:40;1.67;;;1.57;;
479;SDS011;226;48.606;9.096;2022-09-29T01:11:10;1.33;;;1.30;;
479;SDS011;226;48.606;9.096;2022-09-29T01:13:39;1.67;;;1.57;;
479;SDS011;226;48.606;9.096;2022-09-29T01:16:07;3.70;;;1.63;;
479;SDS011;226;48.606;9.096;2022-09-29T01:18:36;2.10;;;1.80;;
479;SDS011;226;48.606;9.096;2022-09-29T01:21:08;10.40;;;2.00;;
479;SDS011;226;48.606;9.096;2022-09-29T01:23:55;2.77;;;2.20;;
479;SDS011;226;48.606;9.096;2022-09-29T01:26:36;2.17;;;1.83;;
479;SDS011;226;48.606;9.096;2022-09-29T01:29:23;2.20;;;2.00;;
479;SDS011;226;48.606;9.096;2022-09-29T01:31:57;1.43;;;1.40;;
479;SDS011;226;48.606;9.096;2022-09-29T01:34:28;1.77;;;1.67;;
479;SDS011;226;48.606;9.096;2022-09-29T01:37:01;1.37;;;1.27;;
479;SDS011;226;48.606;9.096;2022-09-29T01:39:33;1.40;;;1.40;;
479;SDS011;226;48.606;9.096;2022-09-29T01:42:03;2.50;;;1.50;;
479;SDS011;226;48.606;9.096;2022-09-29T01:44:36;2.10;;;1.67;;
479;SDS011;226;48.606;9.096;2022-09-29T01:47:08;2.03;;;1.83;;
479;SDS011;226;48.606;9.096;2022-09-29T01:49:38;2.57;;;1.57;;
479;SDS011;226;48.606;9.096;2022-09-29T01:52:07;1.93;;;1.70;;
479;SDS011;226;48.606;9.096;2022-09-29T01:54:39;2.67;;;2.43;;
479;SDS011;226;48.606;9.096;2022-09-29T01:57:11;1.90;;;1.60;;
479;SDS011;226;48.606;9.096;2022-09-29T01:59:42;2.93;;;1.40;;
479;SDS011;226;48.606;9.096;2022-09-29T02:02:14;1.53;;;1.43;;
479;SDS011;226;48.606;9.096;2022-09-29T02:04:45;2.73;;;2.10;;
479;SDS011;226;48.606;9.096;2022-09-29T02:07:15;1.90;;;1.80;;
479;SDS011;226;48.606;9.096;2022-09-29T02:09:44;2.07;;;1.30;;
479;SDS011;226;48.606;9.096;2022-09-29T02:12:23;2.80;;;1.57;;
479;SDS011;226;48.606;9.096;2022-09-29T02:14:52;1.43;;;1.33;;
479;SDS011;226;48.606;9.096;2022-09-29T02:17:23;1.20;;;1.20;;
479;SDS011;226;48.606;9.096;2022-09-29T02:19:53;1.23;;;1.23;;
479;SDS011;226;48.606;9.096;2022-09-29T02:22:21;1.53;;;1.03;;
479;SDS011;226;48.606;9.096;2022-09-29T02:24:50;1.70;;;1.60;;
479;SDS011;226;48.606;9.096;2022-09-29T02:27:19;1.20;;;1.20;;
479;SDS011;226;48.606;9.096;2022-09-29T02:29:48;2.00;;;1.90;;
479;SDS011;226;48.606;9.096;2022-09-29T02:32:16;2.43;;;2.03;;
479;SDS011;226;48.606;9.096;2022-09-29T02:34:47;3.73;;;2.10;;
479;SDS011;226;48.606;9.096;2022-09-29T02:37:23;3.63;;;1.83;;
479;SDS011;226;48.606;9.096;2022-09-29T02:39:57;2.17;;;1.97;;
479;SDS011;226;48.606;9.096;2022-09-29T02:42:31;2.30;;;1.60;;
479;SDS011;226;48.606;9.096;2022-09-29T02:45:06;1.90;;;1.80;;
479;SDS011;226;48.606;9.096;2022-09-29T02:47:40;2.37;;;2.23;;
479;SDS011;226;48.606;9.096;2022-09-29T02:50:17;1.90;;;1.80;;
479;SDS011;226;48.606;9.096;2022-09-29T02:52:49;2.40;;;1.47;;
479;SDS011;226;48.606;9.096;2022-09-29T02:55:21;1.60;;;1.50;;
479;SDS011;226;48.606;9.096;2022-09-29T02:57:52;1.53;;;1.40;;
479;SDS011;226;48.606;9.096;2022-09-29T03:00:23;5.00;;;1.90;;
479;SDS011;226;48.606;9.096;2022-09-29T03:02:52;1.43;;;1.43;;
479;SDS011;226;48.606;9.096;2022-09-29T03:05:22;5.13;;;1.80;;
479;SDS011;226;48.606;9.096;2022-09-29T03:07:51;1.30;;;1.30;;
479;SDS011;226;48.606;9.096;2022-09-29T03:10:19;2.03;;;1.90;;
479;SDS011;226;48.606;9.096;2022-09-29T03:12:50;1.97;;;1.77;;
479;SDS011;226;48.606;9.096;2022-09-29T03:15:18;1.70;;;1.60;;
479;SDS011;226;48.606;9.096;2022-09-29T03:17:46;4.30;;;2.97;;
479;SDS011;226;48.606;9.096;2022-09-29T03:20:15;1.97;;;1.77;;
479;SDS011;226;48.606;9.096;2022-09-29T03:22:45;2.63;;;2.50;;
479;SDS011;226;48.606;9.096;2022-09-29T03:25:13;1.17;;;1.07;;
479;SDS011;226;48.606;9.096;2022-09-29T03:27:42;5.73;;;1.93;;
479;SDS011;226;48.606;9.096;2022-09-29T03:30:10;2.00;;;1.80;;
479;SDS011;226;48.606;9.096;2022-09-29T03:32:39;2.30;;;2.00;;
479;SDS011;226;48.606;9.096;2022-09-29T03:35:08;1.77;;;1.67;;
479;SDS011;226;48.606;9.096;2022-09-29T03:37:36;2.07;;;2.00;;
479;SDS011;226;48.606;9.096;2022-09-29T03:40:06;1.97;;;1.57;;
479;SDS011;226;48.606;9.096;2022-09-29T03:42:35;1.33;;;1.33;;
479;SDS011;226;48.606;9.096;2022-09-29T03:45:03;3.53;;;1.90;;
479;SDS011;226;48.606;9.096;2022-09-29T03:47:31;2.13;;;1.40;;
479;SDS011;226;48.606;9.096;2022-09-29T03:50:00;1.83;;;1.73;;
479;SDS011;226;48.606;9.096;2022-09-29T03:52:28;2.03;;;1.60;;
479;SDS011;226;48.606;9.096;2022-09-29T03:54:56;2.20;;;2.10;;
479;SDS011;226;48.606;9.096;2022-09-29T03:57:26;1.80;;;1.50;;
479;SDS011;226;48.606;9.096;2022-09-29T03:59:54;1.60;;;1.53;;
479;SDS011;226;48.606;9.096;2022-09-29T04:02:22;1.63;;;1.53;;
479;SDS011;226;48.606;9.096;2022-09-29T04:04:50;1.70;;;1.60;;
479;SDS011;226;48.606;9.096;2022-09-29T04:07:19;1.40;;;1.30;;
479;SDS011;226;48.606;9.096;2022-09-29T04:09:47;1.70;;;1.60;;
479;SDS011;226;48.606;9.096;2022-09-29T04:12:15;3.60;;;2.43;;
479;SDS011;226;48.606;9.096;2022-09-29T04:14:45;1.70;;;1.40;;
479;SDS011;226;48.606;9.096;2022-09-29T04:17:13;4.30;;;2.33;;
479;SDS011;226;48.606;9.096;2022-09-29T04:19:41;1.83;;;1.73;;
479;SDS011;226;48.606;9.096;2022-09-29T04:22:09;2.30;;;2.10;;
479;SDS011;226;48.606;9.096;2022-09-29T04:24:38;2.63;;;1.60;;
479;SDS011;226;48.606;9.096;2022-09-29T04:27:06;6.27;;;2.63;;
479;SDS011;226;48.606;9.096;2022-09-29T04:29:34;2.40;;;1.80;;
479;SDS011;226;48.606;9.096;2022-09-29T04:32:04;3.60;;;1.87;;
479;SDS011;226;48.606;9.096;2022-09-29T04:34:32;9.63;;;1.77;;
479;SDS011;226;48.606;9.096;2022-09-29T04:37:01;1.37;;;1.17;;
479;SDS011;226;48.606;9.096;2022-09-29T04:39:29;1.13;;;1.13;;
479;SDS011;226;48.606;9.096;2022-09-29T04:41:57;2.67;;;2.43;;
479;SDS011;226;48.606;9.096;2022-09-29T04:44:26;2.23;;;2.13;;
479;SDS011;226;48.606;9.096;2022-09-29T04:46:54;1.67;;;1.57;;
479;SDS011;226;48.606;9.096;2022-09-29T04:49:23;1.67;;;1.57;;
479;SDS011;226;48.606;9.096;2022-09-29T04:51:52;1.77;;;1.70;;
479;SDS011;226;48.606;9.096;2022-09-29T04:54:20;2.23;;;2.07;;
479;SDS011;226;48.606;9.096;2022-09-29T04:56:48;1.20;;;1.10;;
479;SDS011;226;48.606;9.096;2022-09-29T04:59:16;1.90;;;1.70;;
479;SDS011;226;48.606;9.096;2022-09-29T05:01:45;1.80;;;1.70;;
479;SDS011;226;48.606;9.096;2022-09-29T05:04:13;4.57;;;2.17;;
479;SDS011;226;48.606;9.096;2022-09-29T05:06:43;2.83;;;1.37;;
479;SDS011;226;48.606;9.096;2022-09-29T05:09:11;1.57;;;1.37;;
479;SDS011;226;48.606;9.096;2022-09-29T05:11:39;3.17;;;2.00;;
479;SDS011;226;48.606;9.096;2022-09-29T05:14:07;1.37;;;1.27;;
479;SDS011;226;48.606;9.096;2022-09-29T05:16:36;2.77;;;2.53;;
479;SDS011;226;48.606;9.096;2022-09-29T05:19:04;2.40;;;1.93;;
479;SDS011;226;48.606;9.096;2022-09-29T05:21:32;2.13;;;2.03;;
479;SDS011;226;48.606;9.096;2022-09-29T05:24:02;1.20;;;1.20;;
479;SDS011;226;48.606;9.096;2022-09-29T05:26:30;2.20;;;2.10;;
479;SDS011;226;48.606;9.096;2022-09-29T05:28:58;2.47;;;2.30;;
479;SDS011;226;48.606;9.096;2022-09-29T05:31:27;7.50;;;2.80;;
479;SDS011;226;48.606;9.096;2022-09-29T05:33:55;1.53;;;1.43;;
479;SDS011;226;48.606;9.096;2022-09-29T05:36:23;1.63;;;1.30;;
479;SDS011;226;48.606;9.096;2022-09-29T05:38:52;5.67;;;3.93;;
479;SDS011;226;48.606;9.096;2022-09-29T05:41:22;7.00;;;3.70;;
479;SDS011;226;48.606;9.096;2022-09-29T05:43:51;8.50;;;4.00;;
479;SDS011;226;48.606;9.096;2022-09-29T05:46:19;4.53;;;3.90;;
479;SDS011;226;48.606;9.096;2022-09-29T05:48:48;20.47;;;9.30;;
479;SDS011;226;48.606;9.096;2022-09-29T05:51:18;3.57;;;3.23;;
479;SDS011;226;48.606;9.096;2022-09-29T05:53:48;6.20;;;3.10;;
479;SDS011;226;48.606;9.096;2022-09-29T05:56:17;5.50;;;2.80;;
479;SDS011;226;48.606;9.096;2022-09-29T05:58:48;5.80;;;4.50;;
479;SDS011;226;48.606;9.096;2022-09-29T06:01:17;2.83;;;2.63;;
479;SDS011;226;48.606;9.096;2022-09-29T06:03:45;4.00;;;2.67;;
479;SDS011;226;48.606;9.096;2022-09-29T06:06:15;3.63;;;2.97;;
479;SDS011;226;48.606;9.096;2022-09-29T06:08:43;2.93;;;2.57;;
479;SDS011;226;48.606;9.096;2022-09-29T06:11:13;6.60;;;2.03;;
479;SDS011;226;48.606;9.096;2022-09-29T06:13:42;4.57;;;4.17;;
479;SDS011;226;48.606;9.096;2022-09-29T06:16:12;4.90;;;3.00;;
479;SDS011;226;48.606;9.096;2022-09-29T06:18:40;7.23;;;2.80;;
479;SDS011;226;48.606;9.096;2022-09-29T06:21:09;7.03;;;3.43;;
479;SDS011;226;48.606;9.096;2022-09-29T06:23:38;4.67;;;3.93;;
479;SDS011;226;48.606;9.096;2022-09-29T06:26:07;9.50;;;2.00;;
479;SDS011;226;48.606;9.096;2022-09-29T06:28:36;5.03;;;3.07;;
479;SDS011;226;48.606;9.096;2022-09-29T06:31:05;5.33;;;3.43;;
479;SDS011;226;48.606;9.096;2022-09-29T06:33:35;9.30;;;4.27;;
479;SDS011;226;48.606;9.096;2022-09-29T06:36:04;4.23;;;2.90;;
479;SDS011;226;48.606;9.096;2022-09-29T06:38:52;5.07;;;2.80;;
479;SDS011;226;48.606;9.096;2022-09-29T06:41:20;4.10;;;3.33;;
479;SDS011;226;48.606;9.096;2022-09-29T06:43:48;5.17;;;3.30;;
479;SDS011;226;48.606;9.096;2022-09-29T06:46:17;5.80;;;3.10;;
479;SDS011;226;48.606;9.096;2022-09-29T06:48:47;6.87;;;4.13;;
479;SDS011;226;48.606;9.096;2022-09-29T06:51:15;4.40;;;2.90;;
479;SDS011;226;48.606;9.096;2022-09-29T06:53:43;6.77;;;4.17;;
479;SDS011;226;48.606;9.096;2022-09-29T06:56:11;5.20;;;2.33;;
479;SDS011;226;48.606;9.096;2022-09-29T06:58:40;6.47;;;3.53;;
479;SDS011;226;48.606;9.096;2022-09-29T07:01:08;4.10;;;3.10;;
479;SDS011;226;48.606;9.096;2022-09-29T07:03:38;7.73;;;3.53;;
479;SDS011;226;48.606;9.096;2022-09-29T07:06:08;6.40;;;4.23;;
479;SDS011;226;48.606;9.096;2022-09-29T07:08:45;3.07;;;2.63;;
479;SDS011;226;48.606;9.096;2022-09-29T07:11:14;1.70;;;1.60;;
479;SDS011;226;48.606;9.096;2022-09-29T07:13:42;3.57;;;2.70;;
479;SDS011;226;48.606;9.096;2022-09-29T07:16:11;4.93;;;3.07;;
479;SDS011;226;48.606;9.096;2022-09-29T07:18:41;3.27;;;1.80;;
479;SDS011;226;48.606;9.096;2022-09-29T07:21:12;2.50;;;2.23;;
479;SDS011;226;48.606;9.096;2022-09-29T07:23:43;2.80;;;2.03;;
479;SDS011;226;48.606;9.096;2022-09-29T07:26:11;4.47;;;2.53;;
479;SDS011;226;48.606;9.096;2022-09-29T07:28:39;1.90;;;1.80;;
479;SDS011;226;48.606;9.096;2022-09-29T07:31:08;3.00;;;2.20;;
479;SDS011;226;48.606;9.096;2022-09-29T07:33:40;3.23;;;2.43;;
479;SDS011;226;48.606;9.096;2022-09-29T07:36:10;3.90;;;2.80;;
479;SDS011;226;48.606;9.096;2022-09-29T07:38:39;4.83;;;2.47;;
479;SDS011;226;48.606;9.096;2022-09-29T07:41:08;1.53;;;1.43;;
479;SDS011;226;48.606;9.096;2022-09-29T07:43:37;7.20;;;4.30;;
479;SDS011;226;48.606;9.096;2022-09-29T07:46:06;2.87;;;2.67;;
479;SDS011;226;48.606;9.096;2022-09-29T07:48:34;12.13;;;3.60;;
479;SDS011;226;48.606;9.096;2022-09-29T07:51:04;4.63;;;3.00;;
479;SDS011;226;48.606;9.096;2022-09-29T07:53:34;3.37;;;3.03;;
479;SDS011;226;48.606;9.096;2022-09-29T07:56:02;6.20;;;3.27;;
479;SDS011;226;48.606;9.096;2022-09-29T07:58:31;2.67;;;2.47;;
479;SDS011;226;48.606;9.096;2022-09-29T08:01:00;3.27;;;2.43;;
479;SDS011;226;48.606;9.096;2022-09-29T08:03:30;6.73;;;3.03;;
479;SDS011;226;48.606;9.096;2022-09-29T08:05:58;2.70;;;2.50;;
479;SDS011;226;48.606;9.096;2022-09-29T08:08:27;2.93;;;2.73;;
479;SDS011;226;48.606;9.096;2022-09-29T08:11:02;3.17;;;2.83;;
479;SDS011;226;48.606;9.096;2022-09-29T08:13:30;4.60;;;2.50;;
479;SDS011;226;48.606;9.096;2022-09-29T08:15:59;3.90;;;2.80;;
479;SDS011;226;48.606;9.096;2022-09-29T08:18:28;2.10;;;1.90;;
479;SDS011;226;48.606;9.096;2022-09-29T08:20:57;3.80;;;2.80;;
479;SDS011;226;48.606;9.096;2022-09-29T08:23:29;2.73;;;2.17;;
479;SDS011;226;48.606;9.096;2022-09-29T08:25:58;7.30;;;3.20;;
479;SDS011;226;48.606;9.096;2022-09-29T08:28:29;3.57;;;2.60;;
479;SDS011;226;48.606;9.096;2022-09-29T08:31:00;2.33;;;2.10;;
479;SDS011;226;48.606;9.096;2022-09-29T08:33:30;5.07;;;3.23;;
479;SDS011;226;48.606;9.096;2022-09-29T08:35:58;2.73;;;2.27;;
479;SDS011;226;48.606;9.096;2022-09-29T08:38:28;5.40;;;3.37;;
479;SDS011;226;48.606;9.096;2022-09-29T08:41:01;4.00;;;3.60;;
479;SDS011;226;48.606;9.096;2022-09-29T08:43:32;8.00;;;5.20;;
479;SDS011;226;48.606;9.096;2022-09-29T08:46:01;8.27;;;4.03;;
479;SDS011;226;48.606;9.096;2022-09-29T08:48:32;7.23;;;4.27;;
479;SDS011;226;48.606;9.096;2022-09-29T08:51:01;4.33;;;3.93;;
479;SDS011;226;48.606;9.096;2022-09-29T08:53:31;4.40;;;3.93;;
479;SDS011;226;48.606;9.096;2022-09-29T08:56:01;2.33;;;2.13;;
479;SDS011;226;48.606;9.096;2022-09-29T08:58:31;4.10;;;3.20;;
479;SDS011;226;48.606;9.096;2022-09-29T09:01:07;3.60;;;3.30;;
479;SDS011;226;48.606;9.096;2022-09-29T09:03:44;3.77;;;1.93;;
479;SDS011;226;48.606;9.096;2022-09-29T09:06:22;1.77;;;1.67;;
479;SDS011;226;48.606;9.096;2022-09-29T09:08:57;4.03;;;2.10;;
479;SDS011;226;48.606;9.096;2022-09-29T09:11:31;1.70;;;1.60;;
479;SDS011;226;48.606;9.096;2022-09-29T09:14:09;1.63;;;1.43;;
479;SDS011;226;48.606;9.096;2022-09-29T09:16:42;6.97;;;2.43;;
479;SDS011;226;48.606;9.096;2022-09-29T09:19:29;1.30;;;1.30;;
479;SDS011;226;48.606;9.096;2022-09-29T09:22:04;5.43;;;1.87;;
479;SDS011;226;48.606;9.096;2022-09-29T09:24:34;2.40;;;1.90;;
479;SDS011;226;48.606;9.096;2022-09-29T09:27:06;1.70;;;1.43;;
479;SDS011;226;48.606;9.096;2022-09-29T09:29:59;2.93;;;1.60;;
479;SDS011;226;48.606;9.096;2022-09-29T09:32:29;1.43;;;1.13;;
479;SDS011;226;48.606;9.096;2022-09-29T09:34:59;1.50;;;1.40;;
479;SDS011;226;48.606;9.096;2022-09-29T09:37:43;1.00;;;1.00;;
479;SDS011;226;48.606;9.096;2022-09-29T09:40:13;1.77;;;1.67;;
479;SDS011;226;48.606;9.096;2022-09-29T09:42:44;3.23;;;1.17;;
479;SDS011;226;48.606;9.096;2022-09-29T09:45:25;1.50;;;1.40;;
479;SDS011;226;48.606;9.096;2022-09-29T09:47:54;1.50;;;1.40;;
479;SDS011;226;48.606;9.096;2022-09-29T09:50:26;1.07;;;1.07;;
479;SDS011;226;48.606;9.096;2022-09-29T09:52:55;0.97;;;0.97;;
479;SDS011;226;48.606;9.096;2022-09-29T09:55:26;3.40;;;1.13;;
479;SDS011;226;48.606;9.096;2022-09-29T09:58:03;1.53;;;1.33;;
479;SDS011;226;48.606;9.096;2022-09-29T10:00:36;1.50;;;1.30;;
479;SDS011;226;48.606;9.096;2022-09-29T10:03:06;3.50;;;1.10;;
479;SDS011;226;48.606;9.096;2022-09-29T10:05:36;1.77;;;1.67;;
479;SDS011;226;48.606;9.096;2022-09-29T10:08:06;1.70;;;1.60;;
479;SDS011;226;48.606;9.096;2022-09-29T10:10:37;1.00;;;1.00;;
479;SDS011;226;48.606;9.096;2022-09-29T10:13:23;1.80;;;1.17;;
479;SDS011;226;48.606;9.096;2022-09-29T10:16:08;1.80;;;1.17;;
479;SDS011;226;48.606;9.096;2022-09-29T10:18:40;2.77;;;1.77;;
479;SDS011;226;48.606;9.096;2022-09-29T10:21:17;0.83;;;0.83;;
479;SDS011;226;48.606;9.096;2022-09-29T10:23:49;1.50;;;1.47;;
479;SDS011;226;48.606;9.096;2022-09-29T10:26:18;1.50;;;1.13;;
479;SDS011;226;48.606;9.096;2022-09-29T10:28:51;1.80;;;1.10;;
479;SDS011;226;48.606;9.096;2022-09-29T10:31:24;1.33;;;1.10;;
479;SDS011;226;48.606;9.096;2022-09-29T10:33:54;1.30;;;1.20;;
479;SDS011;226;48.606;9.096;2022-09-29T10:36:23;1.63;;;1.23;;
479;SDS011;226;48.606;9.096;2022-09-29T10:38:52;1.50;;;1.40;;
479;SDS011;226;48.606;9.096;2022-09-29T10:41:28;0.80;;;0.80;;
479;SDS011;226;48.606;9.096;2022-09-29T10:43:56;1.00;;;0.87;;
479;SDS011;226;48.606;9.096;2022-09-29T10:46:47;1.43;;;1.20;;
479;SDS011;226;48.606;9.096;2022-09-29T10:49:17;0.80;;;0.80;;
479;SDS011;226;48.606;9.096;2022-09-29T10:51:50;1.77;;;1.50;;
479;SDS011;226;48.606;9.096;2022-09-29T10:54:20;1.50;;;1.20;;
479;SDS011;226;48.606;9.096;2022-09-29T10:56:50;1.77;;;1.50;;
479;SDS011;226;48.606;9.096;2022-09-29T10:59:19;0.90;;;0.90;;
479;SDS011;226;48.606;9.096;2022-09-29T11:01:51;1.37;;;1.27;;
479;SDS011;226;48.606;9.096;2022-09-29T11:04:21;1.33;;;0.80;;
479;SDS011;226;48.606;9.096;2022-09-29T11:06:51;1.00;;;1.00;;
479;SDS011;226;48.606;9.096;2022-09-29T11:09:27;1.17;;;1.00;;
479;SDS011;226;48.606;9.096;2022-09-29T11:11:56;2.30;;;1.43;;
479;SDS011;226;48.606;9.096;2022-09-29T11:14:29;2.10;;;0.93;;
479;SDS011;226;48.606;9.096;2022-09-29T11:17:00;0.90;;;0.90;;
479;SDS011;226;48.606;9.096;2022-09-29T11:19:29;5.63;;;1.20;;
479;SDS011;226;48.606;9.096;2022-09-29T11:27:32;3.03;;;1.87;;
479;SDS011;226;48.606;9.096;2022-09-29T11:30:08;2.63;;;1.10;;
479;SDS011;226;48.606;9.096;2022-09-29T11:32:42;3.87;;;1.33;;
479;SDS011;226;48.606;9.096;2022-09-29T11:35:16;1.33;;;1.00;;
479;SDS011;226;48.606;9.096;2022-09-29T11:37:50;1.23;;;1.10;;
479;SDS011;226;48.606;9.096;2022-09-29T11:40:25;1.10;;;1.10;;
479;SDS011;226;48.606;9.096;2022-09-29T11:43:00;1.53;;;1.27;;
479;SDS011;226;48.606;9.096;2022-09-29T11:45:32;1.20;;;0.80;;
479;SDS011;226;48.606;9.096;2022-09-29T11:48:09;3.33;;;1.57;;
479;SDS011;226;48.606;9.096;2022-09-29T11:50:41;0.80;;;0.80;;
479;SDS011;226;48.606;9.096;2022-09-29T11:53:25;0.80;;;0.80;;
479;SDS011;226;48.606;9.096;2022-09-29T11:56:00;0.80;;;0.80;;
479;SDS011;226;48.606;9.096;2022-09-29T11:58:37;4.77;;;0.93;;
479;SDS011;226;48.606;9.096;2022-09-29T12:01:12;0.70;;;0.70;;
479;SDS011;226;48.606;9.096;2022-09-29T12:03:46;2.90;;;1.03;;
479;SDS011;226;48.606;9.096;2022-09-29T12:06:29;2.60;;;1.00;;
479;SDS011;226;48.606;9.096;2022-09-29T12:09:02;0.87;;;0.87;;
479;SDS011;226;48.606;9.096;2022-09-29T12:11:34;0.83;;;0.83;;
479;SDS011;226;48.606;9.096;2022-09-29T12:14:26;1.50;;;1.13;;
479;SDS011;226;48.606;9.096;2022-09-29T12:17:07;1.93;;;1.17;;
479;SDS011;226;48.606;9.096;2022-09-29T12:19:38;2.50;;;1.03;;
479;SDS011;226;48.606;9.096;2022-09-29T12:22:09;3.77;;;1.83;;
479;SDS011;226;48.606;9.096;2022-09-29T12:24:39;2.10;;;1.20;;
479;SDS011;226;48.606;9.096;2022-09-29T12:27:10;2.20;;;0.77;;
479;SDS011;226;48.606;9.096;2022-09-29T12:29:40;0.77;;;0.77;;
479;SDS011;226;48.606;9.096;2022-09-29T12:32:11;0.90;;;0.90;;
479;SDS011;226;48.606;9.096;2022-09-29T12:34:46;1.00;;;0.90;;
479;SDS011;226;48.606;9.096;2022-09-29T12:37:16;2.20;;;0.77;;
479;SDS011;226;48.606;9.096;2022-09-29T12:39:48;1.03;;;0.93;;
479;SDS011;226;48.606;9.096;2022-09-29T12:42:20;3.30;;;0.83;;
479;SDS011;226;48.606;9.096;2022-09-29T12:44:52;3.03;;;2.50;;
479;SDS011;226;48.606;9.096;2022-09-29T12:47:23;3.10;;;1.10;;
479;SDS011;226;48.606;9.096;2022-09-29T12:49:58;0.80;;;0.80;;
479;SDS011;226;48.606;9.096;2022-09-29T12:52:30;5.50;;;1.20;;
479;SDS011;226;48.606;9.096;2022-09-29T12:55:01;0.90;;;0.90;;
479;SDS011;226;48.606;9.096;2022-09-29T12:57:33;1.57;;;1.57;;
479;SDS011;226;48.606;9.096;2022-09-29T13:00:04;0.70;;;0.70;;
479;SDS011;226;48.606;9.096;2022-09-29T13:02:46;1.13;;;0.80;;
479;SDS011;226;48.606;9.096;2022-09-29T13:05:29;1.20;;;1.10;;
479;SDS011;226;48.606;9.096;2022-09-29T13:08:12;0.73;;;0.73;;
479;SDS011;226;48.606;9.096;2022-09-29T13:10:51;1.10;;;1.00;;
479;SDS011;226;48.606;9.096;2022-09-29T13:13:28;1.10;;;1.00;;
479;SDS011;226;48.606;9.096;2022-09-29T13:16:03;0.80;;;0.80;;
479;SDS011;226;48.606;9.096;2022-09-29T13:18:40;1.13;;;1.03;;
479;SDS011;226;48.606;9.096;2022-09-29T13:21:35;1.50;;;1.00;;
479;SDS011;226;48.606;9.096;2022-09-29T13:24:12;2.93;;;1.33;;
479;SDS011;226;48.606;9.096;2022-09-29T13:26:50;1.57;;;1.20;;
479;SDS011;226;48.606;9.096;2022-09-29T13:29:24;1.73;;;0.80;;
479;SDS011;226;48.606;9.096;2022-09-29T13:31:53;0.93;;;0.93;;
479;SDS011;226;48.606;9.096;2022-09-29T13:34:26;8.43;;;5.00;;
479;SDS011;226;48.606;9.096;2022-09-29T13:37:04;1.23;;;1.00;;
479;SDS011;226;48.606;9.096;2022-09-29T13:39:33;0.80;;;0.80;;
479;SDS011;226;48.606;9.096;2022-09-29T13:47:32;1.00;;;0.90;;
479;SDS011;226;48.606;9.096;2022-09-29T13:50:19;0.83;;;0.83;;
479;SDS011;226;48.606;9.096;2022-09-29T13:55:49;2.33;;;1.20;;
479;SDS011;226;48.606;9.096;2022-09-29T13:58:21;0.97;;;0.97;;
479;SDS011;226;48.606;9.096;2022-09-29T14:00:50;7.10;;;1.70;;
479;SDS011;226;48.606;9.096;2022-09-29T14:03:25;1.30;;;1.20;;
479;SDS011;226;48.606;9.096;2022-09-29T14:05:56;2.20;;;1.57;;
479;SDS011;226;48.606;9.096;2022-09-29T14:08:49;1.03;;;1.00;;
479;SDS011;226;48.606;9.096;2022-09-29T14:11:23;1.27;;;1.10;;
479;SDS011;226;48.606;9.096;2022-09-29T14:13:55;1.13;;;0.93;;
479;SDS011;226;48.606;9.096;2022-09-29T14:19:15;0.70;;;0.70;;
479;SDS011;226;48.606;9.096;2022-09-29T14:21:51;1.03;;;0.97;;
479;SDS011;226;48.606;9.096;2022-09-29T14:27:28;2.03;;;1.10;;
479;SDS011;226;48.606;9.096;2022-09-29T14:30:03;0.80;;;0.80;;
479;SDS011;226;48.606;9.096;2022-09-29T14:32:36;1.07;;;0.97;;
479;SDS011;226;48.606;9.096;2022-09-29T14:35:18;0.83;;;0.70;;
479;SDS011;226;48.606;9.096;2022-09-29T14:37:48;0.70;;;0.70;;
479;SDS011;226;48.606;9.096;2022-09-29T14:40:17;1.50;;;1.10;;
479;SDS011;226;48.606;9.096;2022-09-29T14:43:03;3.57;;;1.33;;
479;SDS011;226;48.606;9.096;2022-09-29T14:45:34;1.13;;;1.13;;
479;SDS011;226;48.606;9.096;2022-09-29T14:48:25;0.80;;;0.80;;
479;SDS011;226;48.606;9.096;2022-09-29T14:51:13;2.00;;;0.80;;
479;SDS011;226;48.606;9.096;2022-09-29T14:54:03;2.10;;;1.30;;
479;SDS011;226;48.606;9.096;2022-09-29T14:56:40;0.97;;;0.97;;
479;SDS011;226;48.606;9.096;2022-09-29T14:59:16;1.13;;;1.13;;
479;SDS011;226;48.606;9.096;2022-09-29T15:01:59;2.60;;;1.00;;
479;SDS011;226;48.606;9.096;2022-09-29T15:04:35;1.00;;;1.00;;
479;SDS011;226;48.606;9.096;2022-09-29T15:07:04;1.13;;;0.93;;
479;SDS011;226;48.606;9.096;2022-09-29T15:09:34;3.80;;;2.33;;
479;SDS011;226;48.606;9.096;2022-09-29T15:12:11;7.80;;;1.20;;
479;SDS011;226;48.606;9.096;2022-09-29T15:14:42;1.17;;;1.07;;
479;SDS011;226;48.606;9.096;2022-09-29T15:17:13;3.23;;;1.37;;
479;SDS011;226;48.606;9.096;2022-09-29T15:19:46;1.53;;;1.43;;
479;SDS011;226;48.606;9.096;2022-09-29T15:22:26;0.80;;;0.80;;
479;SDS011;226;48.606;9.096;2022-09-29T15:25:01;1.03;;;1.03;;
479;SDS011;226;48.606;9.096;2022-09-29T15:27:36;1.07;;;1.07;;
479;SDS011;226;48.606;9.096;2022-09-29T15:30:10;0.70;;;0.70;;
479;SDS011;226;48.606;9.096;2022-09-29T15:32:41;1.50;;;1.40;;
479;SDS011;226;48.606;9.096;2022-09-29T15:35:11;1.50;;;1.10;;
479;SDS011;226;48.606;9.096;2022-09-29T15:37:54;1.20;;;1.10;;
479;SDS011;226;48.606;9.096;2022-09-29T15:40:23;0.83;;;0.83;;
479;SDS011;226;48.606;9.096;2022-09-29T15:42:51;1.90;;;1.10;;
479;SDS011;226;48.606;9.096;2022-09-29T15:45:22;6.63;;;1.20;;
479;SDS011;226;48.606;9.096;2022-09-29T15:47:59;1.83;;;1.20;;
479;SDS011;226;48.606;9.096;2022-09-29T15:50:28;2.23;;;1.70;;
479;SDS011;226;48.606;9.096;2022-09-29T15:52:57;9.00;;;3.57;;
479;SDS011;226;48.606;9.096;2022-09-29T15:55:29;1.17;;;1.07;;
479;SDS011;226;48.606;9.096;2022-09-29T15:57:57;1.13;;;1.03;;
479;SDS011;226;48.606;9.096;2022-09-29T16:00:42;1.60;;;1.47;;
479;SDS011;226;48.606;9.096;2022-09-29T16:03:11;2.40;;;2.30;;
479;SDS011;226;48.606;9.096;2022-09-29T16:05:42;1.03;;;1.00;;
479;SDS011;226;48.606;9.096;2022-09-29T16:08:14;1.63;;;1.40;;
479;SDS011;226;48.606;9.096;2022-09-29T16:10:48;1.50;;;1.40;;
479;SDS011;226;48.606;9.096;2022-09-29T16:13:21;1.87;;;1.70;;
479;SDS011;226;48.606;9.096;2022-09-29T16:15:53;1.37;;;1.37;;
479;SDS011;226;48.606;9.096;2022-09-29T16:18:23;2.93;;;1.83;;
479;SDS011;226;48.606;9.096;2022-09-29T16:20:52;1.97;;;1.77;;
479;SDS011;226;48.606;9.096;2022-09-29T16:23:26;1.83;;;1.60;;
479;SDS011;226;48.606;9.096;2022-09-29T16:26:07;2.83;;;1.63;;
479;SDS011;226;48.606;9.096;2022-09-29T16:28:37;3.60;;;1.43;;
479;SDS011;226;48.606;9.096;2022-09-29T16:31:16;2.40;;;2.20;;
479;SDS011;226;48.606;9.096;2022-09-29T16:33:45;1.30;;;1.30;;
479;SDS011;226;48.606;9.096;2022-09-29T16:36:16;5.23;;;1.87;;